Time;durP1;ratioP1;P1;durP2;ratioP2;P2;SDS_P1;SDS_P2;PMS_P1;PMS_P2;Temp;Humidity;BMP_temperature;BMP_pressure;BME280_temperature;BME280_humidity;BME280_pressure;Samples;Min_cycle;Max_cycle;Signal;HPM_P1;HPM_P2
2021/08/23 00:01:14;;;;;;;292.37;280.07;;;;;;;;;;5008269;28;20489;-61
2021/08/23 00:03:41;;;;;;;291.47;279.37;;;;;;;;;;4993186;28;20452;-62
2021/08/23 00:06:09;;;;;;;291.33;279.23;;;;;;;;;;4996448;28;20456;-62
2021/08/23 00:08:37;;;;;;;289.00;276.80;;;;;;;;;;5012546;28;20445;-62
2021/08/23 00:11:04;;;;;;;297.60;285.30;;;;;;;;;;5009424;28;20493;-61
2021/08/23 00:13:31;;;;;;;289.87;278.07;;;;;;;;;;4993243;28;20450;-61
2021/08/23 00:15:59;;;;;;;288.87;277.40;;;;;;;;;;4994066;28;20446;-61
2021/08/23 00:18:26;;;;;;;284.83;273.23;;;;;;;;;;5012473;28;20445;-61
2021/08/23 00:20:56;;;;;;;285.30;273.67;;;;;;;;;;5011836;28;20818;-61
2021/08/23 00:23:25;;;;;;;301.10;288.60;;;;;;;;;;5011933;28;20454;-61
2021/08/23 00:25:54;;;;;;;308.40;295.23;;;;;;;;;;5012601;28;20512;-61
2021/08/23 00:28:21;;;;;;;308.40;295.17;;;;;;;;;;5011952;28;20967;-61
2021/08/23 00:30:48;;;;;;;305.27;292.27;;;;;;;;;;5010639;28;20489;-61
2021/08/23 00:33:16;;;;;;;311.90;298.60;;;;;;;;;;5011877;28;20477;-61
2021/08/23 00:35:43;;;;;;;308.83;295.53;;;;;;;;;;5007549;28;20567;-61
2021/08/23 00:38:10;;;;;;;305.77;292.57;;;;;;;;;;4992759;28;20454;-61
2021/08/23 00:40:38;;;;;;;310.70;297.20;;;;;;;;;;4992853;28;20454;-61
2021/08/23 00:43:06;;;;;;;309.90;296.70;;;;;;;;;;4992618;28;20469;-61
2021/08/23 00:45:34;;;;;;;312.87;298.53;;;;;;;;;;4994801;28;20478;-61
2021/08/23 00:48:01;;;;;;;310.37;296.87;;;;;;;;;;5012181;28;20933;-61
2021/08/23 00:50:28;;;;;;;312.50;299.10;;;;;;;;;;5011441;28;20488;-61
2021/08/23 00:52:55;;;;;;;308.53;295.07;;;;;;;;;;5012175;28;20456;-61
2021/08/23 00:55:22;;;;;;;302.60;289.40;;;;;;;;;;5011646;28;21015;-61
2021/08/23 00:57:50;;;;;;;302.47;289.07;;;;;;;;;;5020586;28;20457;-63
2021/08/23 01:00:18;;;;;;;298.97;285.87;;;;;;;;;;5014686;28;20442;-63
2021/08/23 01:02:49;;;;;;;300.03;286.63;;;;;;;;;;4994072;28;20537;-61
2021/08/23 01:05:19;;;;;;;294.67;281.77;;;;;;;;;;4992424;28;20481;-61
2021/08/23 01:07:50;;;;;;;298.20;285.20;;;;;;;;;;4998371;28;20457;-61
2021/08/23 01:10:20;;;;;;;303.03;289.70;;;;;;;;;;5011477;28;20478;-61
2021/08/23 01:12:47;;;;;;;302.80;289.80;;;;;;;;;;5010165;28;20468;-61
2021/08/23 01:15:14;;;;;;;294.60;281.50;;;;;;;;;;5011984;28;20469;-61
2021/08/23 01:17:43;;;;;;;299.27;286.37;;;;;;;;;;4995021;28;20461;-61
2021/08/23 01:20:11;;;;;;;302.13;288.93;;;;;;;;;;4995771;28;20972;-61
2021/08/23 01:22:40;;;;;;;292.43;279.53;;;;;;;;;;4994284;28;20537;-61
2021/08/23 01:25:09;;;;;;;306.27;293.20;;;;;;;;;;4992356;28;20497;-61
2021/08/23 01:27:38;;;;;;;306.20;293.17;;;;;;;;;;4993514;28;20465;-61
2021/08/23 01:30:08;;;;;;;305.37;292.37;;;;;;;;;;5000883;28;20953;-61
2021/08/23 01:32:37;;;;;;;305.17;292.07;;;;;;;;;;5010656;28;20467;-61
2021/08/23 01:35:06;;;;;;;307.83;294.10;;;;;;;;;;5006836;28;20488;-61
2021/08/23 01:37:35;;;;;;;302.07;288.77;;;;;;;;;;5007573;28;20446;-61
2021/08/23 01:40:02;;;;;;;299.50;286.50;;;;;;;;;;5012272;28;20453;-61
2021/08/23 01:42:29;;;;;;;301.30;288.47;;;;;;;;;;5011207;28;20978;-60
2021/08/23 01:44:56;;;;;;;304.47;291.70;;;;;;;;;;5012972;28;20474;-60
2021/08/23 01:47:24;;;;;;;303.53;290.73;;;;;;;;;;5003799;28;20451;-60
2021/08/23 01:49:52;;;;;;;301.13;288.53;;;;;;;;;;4995729;28;20457;-60
2021/08/23 01:52:19;;;;;;;296.00;283.80;;;;;;;;;;5005644;28;21024;-60
2021/08/23 01:54:46;;;;;;;288.60;276.90;;;;;;;;;;5015252;28;20469;-59
2021/08/23 01:57:14;;;;;;;273.97;262.73;;;;;;;;;;5001988;28;20958;-59
2021/08/23 01:59:41;;;;;;;275.57;264.27;;;;;;;;;;4995334;28;20810;-60
2021/08/23 02:02:09;;;;;;;265.40;254.60;;;;;;;;;;5003045;28;20449;-59
2021/08/23 02:04:36;;;;;;;258.53;248.30;;;;;;;;;;5014578;28;20476;-59
2021/08/23 02:07:05;;;;;;;269.67;259.07;;;;;;;;;;5013375;28;20453;-59
2021/08/23 02:09:32;;;;;;;258.43;248.13;;;;;;;;;;5015140;28;20452;-59
2021/08/23 02:11:59;;;;;;;262.47;252.17;;;;;;;;;;5013525;28;21000;-62
2021/08/23 02:14:26;;;;;;;265.27;254.87;;;;;;;;;;5014986;28;20473;-60
2021/08/23 02:16:54;;;;;;;261.37;251.27;;;;;;;;;;5013587;28;20802;-61
2021/08/23 02:19:22;;;;;;;257.50;247.50;;;;;;;;;;5014513;28;20949;-60
2021/08/23 02:21:50;;;;;;;254.07;244.17;;;;;;;;;;5013915;28;20453;-60
2021/08/23 02:24:19;;;;;;;246.17;236.47;;;;;;;;;;5014580;28;20475;-60
2021/08/23 02:26:46;;;;;;;253.13;243.23;;;;;;;;;;5010391;28;20458;-61
2021/08/23 02:29:13;;;;;;;248.17;238.47;;;;;;;;;;4994908;28;20832;-60
2021/08/23 02:31:40;;;;;;;245.03;235.17;;;;;;;;;;4995113;28;20490;-63
2021/08/23 02:34:07;;;;;;;245.73;235.93;;;;;;;;;;4994842;28;20483;-63
2021/08/23 02:36:35;;;;;;;242.27;232.67;;;;;;;;;;4995941;28;20446;-63
2021/08/23 02:39:02;;;;;;;250.60;240.80;;;;;;;;;;5014184;28;20866;-63
2021/08/23 02:41:31;;;;;;;241.40;231.90;;;;;;;;;;5013828;28;20450;-61
2021/08/23 02:43:58;;;;;;;243.67;234.27;;;;;;;;;;4994885;28;20475;-60
2021/08/23 02:46:25;;;;;;;243.90;234.43;;;;;;;;;;4994811;28;20818;-61
2021/08/23 02:48:52;;;;;;;235.73;225.93;;;;;;;;;;5012821;28;20453;-61
2021/08/23 02:51:19;;;;;;;235.23;225.50;;;;;;;;;;5013661;28;20999;-61
2021/08/23 02:53:46;;;;;;;224.47;214.47;;;;;;;;;;5013099;28;20454;-61
2021/08/23 02:56:13;;;;;;;227.27;217.93;;;;;;;;;;5014264;28;20456;-62
2021/08/23 02:58:42;;;;;;;230.10;220.60;;;;;;;;;;4997915;28;20541;-62
2021/08/23 03:01:09;;;;;;;233.47;224.07;;;;;;;;;;4994380;28;20448;-61
2021/08/23 03:03:36;;;;;;;236.10;226.40;;;;;;;;;;4994630;28;20981;-61
2021/08/23 03:06:03;;;;;;;236.77;227.20;;;;;;;;;;4994334;28;20457;-61
2021/08/23 03:08:31;;;;;;;232.10;222.70;;;;;;;;;;5007277;28;20484;-61
2021/08/23 03:11:06;;;;;;;233.57;223.83;;;;;;;;;;5013723;28;20821;-62
2021/08/23 03:13:33;;;;;;;229.97;220.67;;;;;;;;;;5013013;28;20465;-61
2021/08/23 03:16:01;;;;;;;232.73;223.43;;;;;;;;;;5013913;28;20454;-61
2021/08/23 03:18:29;;;;;;;233.87;224.73;;;;;;;;;;5001722;28;20464;-61
2021/08/23 03:20:56;;;;;;;223.30;214.20;;;;;;;;;;4994037;28;20450;-61
2021/08/23 03:23:23;;;;;;;220.30;211.30;;;;;;;;;;5005550;28;20449;-60
2021/08/23 03:25:50;;;;;;;217.67;209.27;;;;;;;;;;5013939;28;20516;-61
2021/08/23 03:28:17;;;;;;;212.50;203.80;;;;;;;;;;5012594;28;20453;-61
2021/08/23 03:30:44;;;;;;;210.87;202.17;;;;;;;;;;5013381;28;20446;-61
2021/08/23 03:33:13;;;;;;;214.30;205.90;;;;;;;;;;5011917;28;20449;-61
2021/08/23 03:35:41;;;;;;;211.60;203.10;;;;;;;;;;5013121;28;20489;-61
2021/08/23 03:38:08;;;;;;;208.50;200.27;;;;;;;;;;5012767;28;20453;-61
2021/08/23 03:40:35;;;;;;;200.10;192.10;;;;;;;;;;5013331;28;20449;-61
2021/08/23 03:43:02;;;;;;;204.90;196.70;;;;;;;;;;5012632;28;20458;-61
2021/08/23 03:45:29;;;;;;;194.20;186.20;;;;;;;;;;5013169;28;20474;-60
2021/08/23 03:47:56;;;;;;;190.73;182.33;;;;;;;;;;5006991;28;20455;-61
2021/08/23 03:50:25;;;;;;;200.07;191.67;;;;;;;;;;4993559;28;20451;-61
2021/08/23 03:52:52;;;;;;;194.77;186.93;;;;;;;;;;4997412;28;20492;-61
2021/08/23 03:55:19;;;;;;;186.20;178.60;;;;;;;;;;5002691;28;20469;-61
2021/08/23 03:57:46;;;;;;;182.07;174.47;;;;;;;;;;5013550;28;20454;-61
2021/08/23 04:00:13;;;;;;;179.60;171.97;;;;;;;;;;5017303;28;20540;-61
2021/08/23 04:02:40;;;;;;;175.83;168.63;;;;;;;;;;5013174;28;20464;-62
2021/08/23 04:05:08;;;;;;;169.00;161.90;;;;;;;;;;5012647;28;20484;-61
2021/08/23 04:07:36;;;;;;;163.50;156.70;;;;;;;;;;5012713;28;20481;-62
2021/08/23 04:10:04;;;;;;;169.07;162.13;;;;;;;;;;5003017;28;20455;-61
2021/08/23 04:12:31;;;;;;;164.87;158.30;;;;;;;;;;4992958;28;20993;-62
2021/08/23 04:15:00;;;;;;;152.73;146.13;;;;;;;;;;5001473;28;20473;-61
2021/08/23 04:17:27;;;;;;;154.20;147.90;;;;;;;;;;5012236;28;20863;-61
2021/08/23 04:19:54;;;;;;;147.80;141.80;;;;;;;;;;5005760;28;20553;-61
2021/08/23 04:22:22;;;;;;;150.37;144.20;;;;;;;;;;5009462;28;20450;-61
2021/08/23 04:24:50;;;;;;;145.63;139.73;;;;;;;;;;5006843;28;20478;-61
2021/08/23 04:27:17;;;;;;;135.33;129.67;;;;;;;;;;4992765;28;20450;-61
2021/08/23 04:29:44;;;;;;;138.30;132.43;;;;;;;;;;4993977;28;20961;-62
2021/08/23 04:32:11;;;;;;;137.57;131.60;;;;;;;;;;4992572;28;20522;-61
2021/08/23 04:34:38;;;;;;;132.23;126.57;;;;;;;;;;4994050;28;20487;-61
2021/08/23 04:37:06;;;;;;;129.70;124.20;;;;;;;;;;4993134;28;20450;-61
2021/08/23 04:39:33;;;;;;;122.40;117.10;;;;;;;;;;4994260;28;20934;-61
2021/08/23 04:42:01;;;;;;;123.17;117.87;;;;;;;;;;5012263;28;20449;-61
2021/08/23 04:44:29;;;;;;;122.50;117.20;;;;;;;;;;5011323;28;20476;-61
2021/08/23 04:46:56;;;;;;;117.63;112.53;;;;;;;;;;5012516;28;20464;-61
2021/08/23 04:49:23;;;;;;;119.30;114.20;;;;;;;;;;5012250;28;20456;-60
2021/08/23 04:51:50;;;;;;;122.80;117.50;;;;;;;;;;5010947;28;20486;-61
2021/08/23 04:54:17;;;;;;;123.73;118.40;;;;;;;;;;5008988;28;21045;-63
2021/08/23 04:56:47;;;;;;;124.23;118.73;;;;;;;;;;5007188;28;20450;-62
2021/08/23 04:59:16;;;;;;;124.53;119.13;;;;;;;;;;4993862;28;20450;-63
2021/08/23 05:01:43;;;;;;;117.90;112.50;;;;;;;;;;4994171;28;20457;-61
2021/08/23 05:04:10;;;;;;;110.77;105.67;;;;;;;;;;4993304;28;21281;-63
2021/08/23 05:06:37;;;;;;;115.93;110.40;;;;;;;;;;4994534;28;20450;-61
2021/08/23 05:09:04;;;;;;;110.93;105.63;;;;;;;;;;4993258;28;20800;-62
2021/08/23 05:11:31;;;;;;;113.73;108.73;;;;;;;;;;4993304;28;20488;-59
2021/08/23 05:13:58;;;;;;;106.80;101.90;;;;;;;;;;4993592;28;20466;-63
2021/08/23 05:16:27;;;;;;;104.83;100.03;;;;;;;;;;4994070;28;20461;-62
2021/08/23 05:18:54;;;;;;;106.77;101.67;;;;;;;;;;5004581;28;20453;-63
2021/08/23 05:21:21;;;;;;;115.83;110.73;;;;;;;;;;4995621;28;20451;-61
2021/08/23 05:23:48;;;;;;;119.93;114.70;;;;;;;;;;5008269;28;20461;-63
2021/08/23 05:26:16;;;;;;;117.30;111.80;;;;;;;;;;4997167;28;20978;-62
2021/08/23 05:28:43;;;;;;;123.47;117.77;;;;;;;;;;4996438;28;20445;-63
2021/08/23 05:31:10;;;;;;;119.07;113.47;;;;;;;;;;4996196;28;20456;-62
2021/08/23 05:33:38;;;;;;;114.90;109.90;;;;;;;;;;4995677;28;20836;-63
2021/08/23 05:36:06;;;;;;;110.03;104.73;;;;;;;;;;5008725;28;20446;-63
2021/08/23 05:38:33;;;;;;;111.77;106.67;;;;;;;;;;5015638;28;20468;-63
2021/08/23 05:41:00;;;;;;;109.90;104.80;;;;;;;;;;5014673;28;20453;-61
2021/08/23 05:43:27;;;;;;;104.37;99.50;;;;;;;;;;5015621;28;20443;-63
2021/08/23 05:45:55;;;;;;;109.53;104.63;;;;;;;;;;5008964;28;20475;-61
2021/08/23 05:48:23;;;;;;;107.80;102.87;;;;;;;;;;5011844;28;20465;-63
2021/08/23 05:50:51;;;;;;;108.07;103.07;;;;;;;;;;5014425;28;20457;-63
2021/08/23 05:53:19;;;;;;;111.97;106.97;;;;;;;;;;5015180;28;20854;-62
2021/08/23 05:55:46;;;;;;;109.60;104.30;;;;;;;;;;5006918;28;20484;-63
2021/08/23 05:58:13;;;;;;;117.30;111.67;;;;;;;;;;5006572;28;20445;-63
2021/08/23 06:00:40;;;;;;;118.23;112.93;;;;;;;;;;5013925;28;20453;-63
2021/08/23 06:03:07;;;;;;;117.03;111.63;;;;;;;;;;5014943;28;20441;-63
2021/08/23 06:05:36;;;;;;;112.33;107.37;;;;;;;;;;5013520;28;20475;-63
2021/08/23 06:08:06;;;;;;;106.83;101.77;;;;;;;;;;5015430;28;20441;-63
2021/08/23 06:10:33;;;;;;;131.20;124.80;;;;;;;;;;5013744;28;20450;-59
2021/08/23 06:13:00;;;;;;;146.93;139.40;;;;;;;;;;5009406;28;20484;-60
2021/08/23 06:15:27;;;;;;;153.43;145.53;;;;;;;;;;5005831;28;20477;-60
2021/08/23 06:17:54;;;;;;;149.30;142.13;;;;;;;;;;5001623;28;20457;-62
2021/08/23 06:20:21;;;;;;;133.43;126.90;;;;;;;;;;4995706;28;20550;-61
2021/08/23 06:22:50;;;;;;;130.87;124.60;;;;;;;;;;4995365;28;20447;-61
2021/08/23 06:25:18;;;;;;;123.50;117.80;;;;;;;;;;4995530;28;20482;-61
2021/08/23 06:27:45;;;;;;;121.33;115.50;;;;;;;;;;4995460;28;20861;-61
2021/08/23 06:30:13;;;;;;;116.83;111.50;;;;;;;;;;4995052;28;20522;-61
2021/08/23 06:32:40;;;;;;;118.73;113.33;;;;;;;;;;4994263;28;20482;-61
2021/08/23 06:35:08;;;;;;;123.40;117.80;;;;;;;;;;4995584;28;20482;-61
2021/08/23 06:37:36;;;;;;;125.50;119.83;;;;;;;;;;4994789;28;20837;-61
2021/08/23 06:40:08;;;;;;;115.20;109.83;;;;;;;;;;4995573;28;20501;-61
2021/08/23 06:42:36;;;;;;;124.27;118.70;;;;;;;;;;5014172;28;20442;-61
2021/08/23 06:45:04;;;;;;;118.17;112.77;;;;;;;;;;5013631;28;20484;-61
2021/08/23 06:47:31;;;;;;;123.43;117.87;;;;;;;;;;5014359;28;20536;-61
2021/08/23 06:49:58;;;;;;;131.07;125.43;;;;;;;;;;5003633;28;20461;-61
2021/08/23 06:52:25;;;;;;;120.70;115.40;;;;;;;;;;4994500;28;20517;-60
2021/08/23 06:54:52;;;;;;;113.03;108.13;;;;;;;;;;4995003;28;20479;-61
2021/08/23 06:57:20;;;;;;;113.00;108.00;;;;;;;;;;4994406;28;20459;-61
2021/08/23 06:59:48;;;;;;;107.77;102.87;;;;;;;;;;5002929;28;20457;-61
2021/08/23 07:02:15;;;;;;;95.97;91.47;;;;;;;;;;5014463;28;20539;-61
2021/08/23 07:04:44;;;;;;;113.80;109.00;;;;;;;;;;5007786;28;20482;-61
2021/08/23 07:07:11;;;;;;;107.10;102.50;;;;;;;;;;4995867;28;20517;-61
2021/08/23 07:09:38;;;;;;;119.73;114.60;;;;;;;;;;4997565;28;20461;-61
2021/08/23 07:12:06;;;;;;;110.47;105.77;;;;;;;;;;4994882;28;20938;-61
2021/08/23 07:14:33;;;;;;;111.83;106.93;;;;;;;;;;4995185;28;20474;-61
2021/08/23 07:17:01;;;;;;;125.20;120.00;;;;;;;;;;4994605;28;20456;-61
2021/08/23 07:19:29;;;;;;;127.70;122.40;;;;;;;;;;4995064;28;20459;-61
2021/08/23 07:21:56;;;;;;;124.30;119.10;;;;;;;;;;4994107;28;20446;-61
2021/08/23 07:24:23;;;;;;;132.03;126.50;;;;;;;;;;4994501;28;20470;-61
2021/08/23 07:26:50;;;;;;;125.70;120.23;;;;;;;;;;4994418;28;20464;-61
2021/08/23 07:29:19;;;;;;;105.90;100.80;;;;;;;;;;4994613;28;20835;-61
2021/08/23 07:31:46;;;;;;;125.03;119.77;;;;;;;;;;4993811;28;20523;-61
2021/08/23 07:34:15;;;;;;;125.03;119.63;;;;;;;;;;4994327;28;20520;-61
2021/08/23 07:36:42;;;;;;;129.37;123.77;;;;;;;;;;5013450;28;20449;-61
2021/08/23 07:39:09;;;;;;;128.60;123.00;;;;;;;;;;5013274;28;20453;-61
2021/08/23 07:41:36;;;;;;;140.60;134.70;;;;;;;;;;4994507;28;20457;-60
2021/08/23 07:44:03;;;;;;;124.10;118.37;;;;;;;;;;4993749;28;20477;-61
2021/08/23 07:46:30;;;;;;;131.97;126.27;;;;;;;;;;4994331;28;20455;-61
2021/08/23 07:48:57;;;;;;;136.67;130.87;;;;;;;;;;4994659;28;20460;-61
2021/08/23 07:51:26;;;;;;;125.60;120.10;;;;;;;;;;5009719;28;20453;-61
2021/08/23 07:53:53;;;;;;;120.60;115.23;;;;;;;;;;5013346;28;20494;-61
2021/08/23 07:56:20;;;;;;;123.53;118.07;;;;;;;;;;5012207;28;20464;-61
2021/08/23 07:58:47;;;;;;;117.10;111.93;;;;;;;;;;5012681;28;20451;-61
2021/08/23 08:01:14;;;;;;;99.93;95.23;;;;;;;;;;5008353;28;20458;-62
2021/08/23 08:03:42;;;;;;;110.60;105.70;;;;;;;;;;5003462;28;20453;-61
2021/08/23 08:06:09;;;;;;;117.17;112.10;;;;;;;;;;4993456;28;20450;-61
2021/08/23 08:08:37;;;;;;;103.83;98.90;;;;;;;;;;4994887;28;20451;-61
2021/08/23 08:11:04;;;;;;;87.87;83.47;;;;;;;;;;5005089;28;20796;-61
2021/08/23 08:13:31;;;;;;;95.63;91.23;;;;;;;;;;5013898;28;20494;-61
2021/08/23 08:15:59;;;;;;;96.77;92.27;;;;;;;;;;5013045;28;20458;-62
2021/08/23 08:18:26;;;;;;;82.30;78.50;;;;;;;;;;5012611;28;20462;-62
2021/08/23 08:20:53;;;;;;;63.77;60.27;;;;;;;;;;5012557;28;20796;-62
2021/08/23 08:23:20;;;;;;;65.63;62.20;;;;;;;;;;5013136;28;20446;-61
2021/08/23 08:25:48;;;;;;;56.90;53.83;;;;;;;;;;4993898;28;20476;-61
2021/08/23 08:28:16;;;;;;;54.03;51.20;;;;;;;;;;4994060;28;20473;-61
2021/08/23 08:30:43;;;;;;;51.93;49.20;;;;;;;;;;4993952;28;20949;-62
2021/08/23 08:33:10;;;;;;;40.83;38.53;;;;;;;;;;4993760;28;20490;-61
2021/08/23 08:35:38;;;;;;;38.63;36.63;;;;;;;;;;5008998;28;20481;-61
2021/08/23 08:38:05;;;;;;;35.70;33.70;;;;;;;;;;5013125;28;20527;-61
2021/08/23 08:40:32;;;;;;;38.17;36.17;;;;;;;;;;4999294;28;20496;-61
2021/08/23 08:43:01;;;;;;;36.53;34.50;;;;;;;;;;4997203;28;20451;-62
2021/08/23 08:45:30;;;;;;;33.53;31.67;;;;;;;;;;5005831;28;20477;-61
2021/08/23 08:48:00;;;;;;;33.23;31.13;;;;;;;;;;4997016;28;20450;-61
2021/08/23 08:50:28;;;;;;;32.90;31.10;;;;;;;;;;4997289;28;20455;-61
2021/08/23 08:52:55;;;;;;;34.17;32.37;;;;;;;;;;4998269;28;20486;-61
2021/08/23 08:55:22;;;;;;;31.40;29.60;;;;;;;;;;5015936;28;21194;-61
2021/08/23 08:57:49;;;;;;;30.00;28.30;;;;;;;;;;5012566;28;20483;-61
2021/08/23 09:00:18;;;;;;;29.33;27.53;;;;;;;;;;5012165;28;20454;-61
2021/08/23 09:03:03;;;;;;;26.77;25.33;;;;;;;;;;5012659;28;20450;-62
2021/08/23 09:05:38;;;;;;;26.03;24.63;;;;;;;;;;5012831;28;20836;-61
2021/08/23 09:08:06;;;;;;;26.97;25.57;;;;;;;;;;5011116;28;20941;-61
2021/08/23 09:10:34;;;;;;;25.10;23.60;;;;;;;;;;5012367;28;20448;-60
2021/08/23 09:13:06;;;;;;;24.87;23.47;;;;;;;;;;5012146;28;20579;-61
2021/08/23 09:15:35;;;;;;;26.60;25.20;;;;;;;;;;4993264;28;20473;-61
2021/08/23 09:18:03;;;;;;;25.60;24.20;;;;;;;;;;4993131;28;20454;-61
2021/08/23 09:20:31;;;;;;;24.63;23.33;;;;;;;;;;5012578;28;20457;-61
2021/08/23 09:23:07;;;;;;;23.70;22.43;;;;;;;;;;5012281;28;20445;-61
2021/08/23 09:25:34;;;;;;;25.50;24.20;;;;;;;;;;4992797;28;20466;-61
2021/08/23 09:28:05;;;;;;;23.33;22.13;;;;;;;;;;4992717;28;20454;-63
2021/08/23 09:30:32;;;;;;;23.60;22.40;;;;;;;;;;5012368;28;20832;-61
2021/08/23 09:33:02;;;;;;;24.00;22.80;;;;;;;;;;5012158;28;20993;-61
2021/08/23 09:35:31;;;;;;;24.43;23.03;;;;;;;;;;5001523;28;20569;-61
2021/08/23 09:37:59;;;;;;;24.70;23.40;;;;;;;;;;4992456;28;20946;-61
2021/08/23 09:40:27;;;;;;;22.77;21.57;;;;;;;;;;4993024;28;20463;-61
2021/08/23 09:42:57;;;;;;;22.60;21.40;;;;;;;;;;4992826;28;20453;-61
2021/08/23 09:45:24;;;;;;;22.23;21.03;;;;;;;;;;5009109;28;20470;-61
2021/08/23 09:47:59;;;;;;;23.40;22.20;;;;;;;;;;5011701;28;20450;-61
2021/08/23 09:50:28;;;;;;;22.77;21.57;;;;;;;;;;4994546;28;20445;-61
2021/08/23 09:52:55;;;;;;;23.00;21.67;;;;;;;;;;4991993;28;20529;-61
2021/08/23 09:55:28;;;;;;;23.67;22.27;;;;;;;;;;5007432;28;20495;-61
2021/08/23 09:57:56;;;;;;;23.20;22.00;;;;;;;;;;5011457;28;20460;-61
2021/08/23 10:00:23;;;;;;;22.70;21.60;;;;;;;;;;4997118;28;20450;-61
2021/08/23 10:02:50;;;;;;;22.10;21.00;;;;;;;;;;4991840;28;20831;-60
2021/08/23 10:05:18;;;;;;;22.10;21.00;;;;;;;;;;4992397;28;20484;-61
2021/08/23 10:07:47;;;;;;;23.17;22.07;;;;;;;;;;4994382;28;20461;-61
2021/08/23 10:10:14;;;;;;;21.77;20.67;;;;;;;;;;4995761;28;20462;-61
2021/08/23 10:12:41;;;;;;;23.87;22.57;;;;;;;;;;5004087;28;20449;-62
2021/08/23 10:15:09;;;;;;;22.33;20.17;;;;;;;;;;5015284;28;21022;-61
2021/08/23 10:17:37;;;;;;;21.40;20.30;;;;;;;;;;5014164;28;20504;-62
2021/08/23 10:20:04;;;;;;;21.70;20.60;;;;;;;;;;5015186;28;20847;-61
2021/08/23 10:22:33;;;;;;;21.30;20.20;;;;;;;;;;5014637;28;20834;-62
2021/08/23 10:25:02;;;;;;;21.90;20.60;;;;;;;;;;5013544;28;20488;-61
2021/08/23 10:27:33;;;;;;;22.53;21.27;;;;;;;;;;5013881;28;20548;-60
2021/08/23 10:30:00;;;;;;;22.00;20.90;;;;;;;;;;5000672;28;20462;-61
2021/08/23 10:32:34;;;;;;;22.30;21.20;;;;;;;;;;5014317;28;20460;-61
2021/08/23 10:35:15;;;;;;;22.60;21.43;;;;;;;;;;5010538;28;20586;-61
2021/08/23 10:37:44;;;;;;;22.63;21.43;;;;;;;;;;5010007;28;20963;-60
2021/08/23 10:40:13;;;;;;;21.33;20.10;;;;;;;;;;5014039;28;20478;-60
2021/08/23 10:42:42;;;;;;;21.83;20.83;;;;;;;;;;5002548;28;20990;-61
2021/08/23 10:45:11;;;;;;;22.80;21.70;;;;;;;;;;4994782;28;20470;-61
2021/08/23 10:47:38;;;;;;;22.63;21.43;;;;;;;;;;4997104;28;20824;-61
2021/08/23 10:50:07;;;;;;;21.77;20.57;;;;;;;;;;4994474;28;20446;-60
2021/08/23 10:52:36;;;;;;;22.47;21.37;;;;;;;;;;4994732;28;20454;-61
2021/08/23 10:55:07;;;;;;;22.87;21.67;;;;;;;;;;5003621;23;21362;-68
2021/08/23 10:57:35;;;;;;;22.20;21.10;;;;;;;;;;4975121;28;20468;-68
2021/08/23 11:00:10;;;;;;;22.03;20.93;;;;;;;;;;4974847;28;20452;-67
2021/08/23 11:02:38;;;;;;;22.37;21.17;;;;;;;;;;4975373;28;20453;-68
2021/08/23 11:05:09;;;;;;;22.30;21.20;;;;;;;;;;4976113;28;20479;-68
2021/08/23 11:07:36;;;;;;;22.17;20.97;;;;;;;;;;4975142;28;20979;-68
2021/08/23 11:10:05;;;;;;;21.70;20.50;;;;;;;;;;4975849;28;20451;-68
2021/08/23 11:12:41;;;;;;;22.40;21.30;;;;;;;;;;4975314;28;20451;-68
2021/08/23 11:15:14;;;;;;;23.00;21.80;;;;;;;;;;4975836;28;20491;-68
2021/08/23 11:17:45;;;;;;;23.20;21.90;;;;;;;;;;4975353;28;20483;-68
2021/08/23 11:20:12;;;;;;;22.07;20.97;;;;;;;;;;4975417;28;20432;-68
2021/08/23 11:22:39;;;;;;;22.30;21.20;;;;;;;;;;4974641;28;20456;-68
2021/08/23 11:25:07;;;;;;;22.00;20.80;;;;;;;;;;4974748;28;20467;-68
2021/08/23 11:27:34;;;;;;;21.60;20.50;;;;;;;;;;4973264;28;20470;-68
2021/08/23 11:30:03;;;;;;;21.83;20.73;;;;;;;;;;4975518;28;20465;-68
2021/08/23 11:32:31;;;;;;;21.60;20.50;;;;;;;;;;4974498;28;20829;-68
2021/08/23 11:35:00;;;;;;;23.10;21.80;;;;;;;;;;4982880;28;20494;-67
2021/08/23 11:37:28;;;;;;;21.30;20.20;;;;;;;;;;4979693;28;20458;-68
2021/08/23 11:40:02;;;;;;;21.33;20.23;;;;;;;;;;4993653;28;20820;-68
2021/08/23 11:42:29;;;;;;;21.70;20.63;;;;;;;;;;4984713;28;20458;-68
2021/08/23 11:44:57;;;;;;;23.90;22.33;;;;;;;;;;4974908;28;20490;-68
2021/08/23 11:47:32;;;;;;;22.03;20.83;;;;;;;;;;4978940;28;20463;-68
2021/08/23 11:50:00;;;;;;;22.13;21.03;;;;;;;;;;4975107;28;20467;-68
2021/08/23 11:52:27;;;;;;;23.00;21.90;;;;;;;;;;4975142;28;20463;-68
2021/08/23 11:54:56;;;;;;;21.63;20.53;;;;;;;;;;4974367;28;20491;-68
2021/08/23 11:57:25;;;;;;;21.70;20.60;;;;;;;;;;4974911;28;20958;-67
2021/08/23 11:59:56;;;;;;;21.67;20.57;;;;;;;;;;4972909;28;20459;-68
2021/08/23 12:02:29;;;;;;;21.47;20.33;;;;;;;;;;4973975;28;20463;-68
2021/08/23 12:05:07;;;;;;;22.80;21.70;;;;;;;;;;4966279;28;20472;-68
2021/08/23 12:07:41;;;;;;;21.53;20.43;;;;;;;;;;4974944;28;20453;-69
2021/08/23 12:10:09;;;;;;;22.60;21.50;;;;;;;;;;4974974;28;20459;-67
2021/08/23 12:12:36;;;;;;;24.63;23.33;;;;;;;;;;4972753;28;20471;-68
2021/08/23 12:15:03;;;;;;;21.27;20.27;;;;;;;;;;4987637;28;20483;-68
2021/08/23 12:17:32;;;;;;;22.00;20.80;;;;;;;;;;4981117;28;20489;-69
2021/08/23 12:20:06;;;;;;;23.00;21.70;;;;;;;;;;4982089;28;20977;-68
2021/08/23 12:22:34;;;;;;;22.40;20.60;;;;;;;;;;4972773;28;20455;-69
2021/08/23 12:25:02;;;;;;;21.83;20.63;;;;;;;;;;4974992;28;20494;-69
2021/08/23 12:27:29;;;;;;;22.10;20.90;;;;;;;;;;4955171;28;20448;-70
2021/08/23 12:29:58;;;;;;;21.60;20.30;;;;;;;;;;4973082;28;20447;-70
2021/08/23 12:32:33;;;;;;;19.97;18.97;;;;;;;;;;4972684;28;20962;-71
2021/08/23 12:35:00;;;;;;;20.97;19.77;;;;;;;;;;4972778;28;20910;-70
2021/08/23 12:37:29;;;;;;;21.00;19.90;;;;;;;;;;4971261;28;20468;-72
2021/08/23 12:39:58;;;;;;;21.90;20.63;;;;;;;;;;4981194;28;20462;-70
2021/08/23 12:42:25;;;;;;;22.17;20.80;;;;;;;;;;4982294;28;20470;-70
2021/08/23 12:44:52;;;;;;;20.53;19.53;;;;;;;;;;4982802;28;21012;-70
2021/08/23 12:47:20;;;;;;;20.33;19.37;;;;;;;;;;4972625;28;20474;-72
2021/08/23 12:49:49;;;;;;;20.37;19.27;;;;;;;;;;4972659;28;20462;-70
2021/08/23 12:52:17;;;;;;;20.10;19.10;;;;;;;;;;4972863;28;20499;-70
2021/08/23 12:54:44;;;;;;;20.20;19.20;;;;;;;;;;4972601;28;20873;-71
2021/08/23 12:57:12;;;;;;;20.40;19.40;;;;;;;;;;4989960;28;20446;-70
2021/08/23 12:59:39;;;;;;;20.30;19.20;;;;;;;;;;4982336;28;20456;-69
2021/08/23 13:02:07;;;;;;;19.90;19.00;;;;;;;;;;4972480;28;20454;-70
2021/08/23 13:04:34;;;;;;;19.77;18.77;;;;;;;;;;4973095;28;20475;-71
2021/08/23 13:07:01;;;;;;;19.60;18.57;;;;;;;;;;4971624;28;20538;-70
2021/08/23 13:09:28;;;;;;;18.90;17.83;;;;;;;;;;4953893;28;20459;-70
2021/08/23 13:11:55;;;;;;;18.77;17.87;;;;;;;;;;4953361;28;20958;-70
2021/08/23 13:14:24;;;;;;;19.20;18.30;;;;;;;;;;4953019;28;20492;-71
2021/08/23 13:16:51;;;;;;;19.27;18.30;;;;;;;;;;4972081;28;20954;-70
2021/08/23 13:19:18;;;;;;;20.00;19.00;;;;;;;;;;4972683;28;20450;-71
2021/08/23 13:21:45;;;;;;;19.50;18.60;;;;;;;;;;4969684;28;20439;-70
2021/08/23 13:24:12;;;;;;;19.50;18.60;;;;;;;;;;4962779;28;20812;-70
2021/08/23 13:26:39;;;;;;;19.20;18.30;;;;;;;;;;4971655;28;20947;-70
2021/08/23 13:29:06;;;;;;;20.17;18.87;;;;;;;;;;4972065;28;20455;-70
2021/08/23 13:31:35;;;;;;;19.63;18.73;;;;;;;;;;4972322;28;20455;-70
2021/08/23 13:34:03;;;;;;;19.90;19.00;;;;;;;;;;4971937;28;21005;-71
2021/08/23 13:36:30;;;;;;;19.93;19.00;;;;;;;;;;4972444;28;20455;-71
2021/08/23 13:38:57;;;;;;;19.00;18.10;;;;;;;;;;4971650;28;20810;-71
2021/08/23 13:41:24;;;;;;;19.57;18.67;;;;;;;;;;4972187;28;20452;-70
2021/08/23 13:43:51;;;;;;;19.47;18.57;;;;;;;;;;4976244;28;20481;-71
2021/08/23 13:46:18;;;;;;;19.50;18.60;;;;;;;;;;4976212;28;20458;-70
2021/08/23 13:48:47;;;;;;;19.40;18.50;;;;;;;;;;4975986;28;20463;-70
2021/08/23 13:51:14;;;;;;;19.87;18.87;;;;;;;;;;4974905;28;20969;-70
2021/08/23 13:53:42;;;;;;;19.10;18.20;;;;;;;;;;4976278;28;20461;-70
2021/08/23 13:56:09;;;;;;;20.33;19.33;;;;;;;;;;4976080;28;20507;-71
2021/08/23 13:58:36;;;;;;;17.60;16.80;;;;;;;;;;4976118;28;20461;-70
2021/08/23 14:01:04;;;;;;;18.90;18.00;;;;;;;;;;4975360;28;20950;-70
2021/08/23 14:03:31;;;;;;;18.63;17.83;;;;;;;;;;4975724;28;20455;-70
2021/08/23 14:05:59;;;;;;;19.00;18.10;;;;;;;;;;4975758;28;20931;-70
2021/08/23 14:08:26;;;;;;;18.90;18.00;;;;;;;;;;4975721;28;20451;-70